Time;durP1;ratioP1;P1;durP2;ratioP2;P2;SDS_P1;SDS_P2;PMS_P1;PMS_P2;Temp;Humidity;BMP_temperature;BMP_pressure;BME280_temperature;BME280_humidity;BME280_pressure;Samples;Min_cycle;Max_cycle;Signal;HPM_P1;HPM_P2
2022/06/14 00:00:57;;;;;;;5.90;1.42;;;12.40;99.90;;;;;;10264463;28;20207;-83
2022/06/14 00:06:21;;;;;;;5.15;1.52;;;12.40;99.90;;;;;;10264298;28;20234;-82
2022/06/14 00:11:42;;;;;;;5.32;1.60;;;12.40;99.90;;;;;;10265523;28;20516;-82
2022/06/14 00:17:04;;;;;;;3.70;1.48;;;12.30;99.90;;;;;;10273724;28;20210;-82
2022/06/14 00:22:25;;;;;;;4.18;1.27;;;12.30;99.90;;;;;;10283914;28;20187;-83
2022/06/14 00:27:47;;;;;;;3.47;1.52;;;12.30;99.90;;;;;;10250967;28;20249;-83
2022/06/14 00:33:09;;;;;;;7.20;1.50;;;12.30;99.90;;;;;;10263090;28;20285;-83
2022/06/14 00:38:33;;;;;;;3.47;1.63;;;12.20;99.90;;;;;;10262630;28;20213;-84
2022/06/14 00:43:55;;;;;;;5.43;1.70;;;12.20;99.90;;;;;;10262933;28;20900;-83
2022/06/14 00:49:22;;;;;;;5.60;1.50;;;12.10;99.90;;;;;;10277966;28;20280;-83
2022/06/14 00:54:47;;;;;;;3.40;1.20;;;12.10;99.90;;;;;;10275767;28;20551;-83
2022/06/14 01:00:15;;;;;;;2.80;1.35;;;12.00;99.90;;;;;;10262767;28;20452;-83
2022/06/14 01:11:52;;;;;;;4.43;1.67;;;12.00;99.90;;;;;;10261433;28;20215;-83
2022/06/14 01:17:14;;;;;;;2.00;1.20;;;12.00;99.90;;;;;;10275353;28;20222;-82
2022/06/14 01:22:36;;;;;;;3.33;1.55;;;11.90;99.90;;;;;;10261149;28;20206;-81
2022/06/14 01:28:00;;;;;;;5.23;1.40;;;11.90;99.90;;;;;;10261838;28;20234;-81
2022/06/14 01:33:36;;;;;;;3.43;1.00;;;11.90;99.90;;;;;;10261086;28;20249;-81
2022/06/14 01:39:00;;;;;;;3.85;1.38;;;11.80;99.90;;;;;;10260976;28;20203;-82
2022/06/14 01:44:25;;;;;;;3.70;1.30;;;11.70;99.90;;;;;;10247482;28;20234;-82
2022/06/14 01:56:11;;;;;;;3.47;1.17;;;11.80;99.90;;;;;;10289979;28;20254;-82
2022/06/14 02:01:52;;;;;;;6.00;1.17;;;11.80;99.90;;;;;;10263505;28;20225;-82
2022/06/14 02:07:28;;;;;;;6.10;1.80;;;11.80;99.90;;;;;;10274069;28;20555;-83
2022/06/14 02:13:21;;;;;;;4.90;1.60;;;11.80;99.90;;;;;;10287804;28;20209;-83
2022/06/14 02:19:12;;;;;;;4.67;1.53;;;11.80;99.90;;;;;;10247105;28;20210;-83
2022/06/14 02:24:43;;;;;;;5.00;1.58;;;11.70;99.90;;;;;;10260262;28;20256;-83
2022/06/14 02:30:26;;;;;;;3.33;1.57;;;11.80;99.90;;;;;;10269621;28;20258;-82
2022/06/14 02:35:51;;;;;;;3.00;1.42;;;11.80;99.90;;;;;;10260741;28;20213;-83
2022/06/14 02:41:27;;;;;;;2.87;1.27;;;11.80;99.90;;;;;;10260015;28;20369;-83
2022/06/14 02:46:52;;;;;;;3.90;1.40;;;11.80;99.90;;;;;;10267730;28;20238;-81
2022/06/14 02:52:41;;;;;;;5.05;1.52;;;11.80;99.90;;;;;;10265084;28;20211;-83
2022/06/14 02:58:17;;;;;;;3.43;1.30;;;11.90;99.90;;;;;;10273505;28;20266;-83
2022/06/14 03:03:44;;;;;;;5.35;1.40;;;11.90;99.90;;;;;;10253423;28;20287;-83
2022/06/14 03:09:10;;;;;;;3.70;1.70;;;11.90;99.90;;;;;;10254272;28;20529;-83
2022/06/14 03:15:13;;;;;;;3.87;1.63;;;11.90;99.90;;;;;;10280535;28;20210;-83
2022/06/14 03:20:46;;;;;;;3.43;1.47;;;11.90;99.90;;;;;;10280780;28;20225;-82
2022/06/14 03:26:27;;;;;;;5.80;1.23;;;11.80;99.90;;;;;;10254105;28;20232;-83
2022/06/14 03:32:04;;;;;;;4.60;1.63;;;11.90;99.90;;;;;;10266922;28;20281;-82
2022/06/14 03:37:26;;;;;;;3.90;1.20;;;12.10;99.90;;;;;;10280432;28;20202;-82
2022/06/14 03:42:48;;;;;;;3.67;1.20;;;12.20;99.90;;;;;;10280414;28;20199;-83
2022/06/14 03:48:10;;;;;;;3.20;1.35;;;12.30;99.90;;;;;;10279730;28;20246;-82
2022/06/14 03:53:38;;;;;;;6.57;1.77;;;12.60;99.90;;;;;;10264775;28;20279;-82
2022/06/14 03:59:27;;;;;;;4.22;1.30;;;12.70;99.90;;;;;;10278385;28;20203;-82
2022/06/14 04:05:06;;;;;;;2.95;1.20;;;12.80;99.90;;;;;;10264282;29;20221;-83
2022/06/14 04:10:30;;;;;;;3.08;1.20;;;13.00;99.90;;;;;;10279349;28;20530;-83
2022/06/14 04:16:19;;;;;;;3.70;1.40;;;13.20;99.90;;;;;;10277260;28;20493;-82
2022/06/14 04:21:53;;;;;;;4.32;1.50;;;13.30;99.90;;;;;;10250387;28;20204;-82
2022/06/14 04:27:30;;;;;;;3.38;1.20;;;13.40;99.90;;;;;;10251709;28;20236;-82
2022/06/14 04:33:03;;;;;;;3.55;1.40;;;13.40;99.90;;;;;;10262895;29;20204;-82
2022/06/14 04:38:31;;;;;;;5.03;1.45;;;13.50;99.90;;;;;;10265639;28;20220;-82
2022/06/14 04:44:02;;;;;;;6.22;1.35;;;13.50;99.90;;;;;;10266367;28;20218;-82
2022/06/14 04:49:57;;;;;;;6.43;1.60;;;13.40;99.90;;;;;;10283359;28;20269;-83
2022/06/14 04:55:23;;;;;;;4.72;1.40;;;13.50;94.10;;;;;;10277380;28;20251;-83
2022/06/14 05:00:51;;;;;;;11.98;1.83;;;13.60;93.10;;;;;;10252515;28;20214;-82
2022/06/14 05:06:17;;;;;;;7.35;1.80;;;13.70;60.60;;;;;;10262224;28;20587;-82
2022/06/14 05:12:08;;;;;;;7.45;2.03;;;13.70;61.30;;;;;;10261467;28;20227;-81
2022/06/14 05:17:45;;;;;;;10.98;2.00;;;13.90;52.30;;;;;;10262197;28;20202;-82
2022/06/14 05:23:21;;;;;;;6.05;1.90;;;14.20;20.20;;;;;;10248293;28;20208;-82
2022/06/14 05:28:56;;;;;;;9.05;2.20;;;14.30;1.00;;;;;;10275345;28;20240;-82
2022/06/14 05:34:20;;;;;;;5.97;1.95;;;14.30;1.00;;;;;;10260791;28;20437;-83
2022/06/14 05:40:08;;;;;;;10.20;1.70;;;14.50;1.00;;;;;;10261467;28;20200;-82
2022/06/14 05:45:34;;;;;;;8.25;1.90;;;14.60;1.00;;;;;;10260651;29;20232;-82
2022/06/14 05:50:59;;;;;;;10.63;1.98;;;14.50;1.00;;;;;;10260617;28;20210;-82
2022/06/14 05:56:49;;;;;;;9.27;1.70;;;14.40;1.00;;;;;;10260683;28;20252;-82
2022/06/14 06:02:29;;;;;;;9.40;1.83;;;14.40;1.00;;;;;;10260444;28;20441;-82
2022/06/14 06:08:26;;;;;;;5.25;1.60;;;14.40;7.40;;;;;;10260289;28;20252;-82
2022/06/14 06:13:52;;;;;;;6.75;1.52;;;14.30;14.30;;;;;;10260112;28;20206;-82
2022/06/14 06:19:26;;;;;;;5.25;1.58;;;14.40;20.30;;;;;;10274032;28;20276;-83
2022/06/14 06:24:56;;;;;;;7.32;1.90;;;14.50;1.00;;;;;;10246834;28;20519;-83
2022/06/14 06:30:30;;;;;;;6.95;2.13;;;14.60;1.00;;;;;;10253959;28;20495;-82
2022/06/14 06:36:13;;;;;;;4.93;1.90;;;14.60;1.00;;;;;;10261228;28;20208;-82
2022/06/14 06:41:50;;;;;;;9.70;2.10;;;15.20;1.00;;;;;;10267328;28;20256;-83
2022/06/14 06:47:49;;;;;;;8.55;1.85;;;15.50;1.00;;;;;;10253673;28;20254;-83
2022/06/14 06:53:19;;;;;;;10.45;1.85;;;15.50;1.00;;;;;;10265034;28;20236;-82
2022/06/14 06:58:55;;;;;;;7.75;2.22;;;15.70;1.00;;;;;;10267633;28;20491;-83
2022/06/14 07:05:03;;;;;;;5.30;1.65;;;15.60;1.00;;;;;;10246953;28;20213;-83
2022/06/14 07:10:40;;;;;;;7.35;1.77;;;15.40;1.00;;;;;;10271283;28;20222;-83
2022/06/14 07:16:21;;;;;;;4.55;1.75;;;15.30;1.00;;;;;;10235159;28;20214;-83
2022/06/14 07:21:53;;;;;;;7.85;1.88;;;15.20;1.00;;;;;;10248924;28;20736;-83
2022/06/14 07:27:18;;;;;;;8.43;2.15;;;15.20;1.00;;;;;;10277251;28;20293;-84
2022/06/14 07:32:46;;;;;;;4.00;1.65;;;15.20;1.00;;;;;;10258843;29;20435;-82
2022/06/14 07:38:24;;;;;;;9.90;2.08;;;15.30;1.00;;;;;;10259665;28;20271;-83
2022/06/14 07:43:59;;;;;;;7.50;1.95;;;15.70;1.00;;;;;;10277315;28;20206;-81
2022/06/14 07:49:29;;;;;;;11.55;1.67;;;16.10;1.00;;;;;;10271018;28;20581;-83
2022/06/14 07:55:01;;;;;;;4.78;2.00;;;15.90;1.00;;;;;;10259541;28;20640;-84
2022/06/14 08:06:35;;;;;;;10.05;2.08;;;15.20;1.00;;;;;;10258862;28;20264;-83
2022/06/14 08:12:05;;;;;;;5.55;1.70;;;15.00;1.00;;;;;;10242916;28;20251;-84
2022/06/14 08:17:38;;;;;;;6.25;1.40;;;15.10;1.00;;;;;;10258007;28;20206;-83
2022/06/14 08:23:04;;;;;;;5.50;1.25;;;15.40;1.00;;;;;;10245160;28;20225;-84
2022/06/14 08:28:35;;;;;;;3.60;1.30;;;15.70;1.00;;;;;;10300387;28;20251;-84
2022/06/14 08:34:04;;;;;;;5.93;1.17;;;16.10;1.00;;;;;;10277126;28;20285;-83
2022/06/14 08:39:49;;;;;;;14.70;1.48;;;16.50;1.00;;;;;;10255282;28;20228;-83
2022/06/14 08:45:21;;;;;;;5.72;1.20;;;17.00;1.00;;;;;;10257065;28;20304;-84
2022/06/14 08:50:57;;;;;;;5.70;1.42;;;17.20;1.00;;;;;;10257777;28;20667;-85
2022/06/14 08:56:49;;;;;;;7.90;1.92;;;17.50;1.00;;;;;;10272053;28;20261;-87
2022/06/14 09:02:22;;;;;;;4.65;1.25;;;18.40;1.00;;;;;;10299650;28;20203;-82
2022/06/14 09:08:26;;;;;;;29.13;2.15;;;17.40;1.00;;;;;;10251711;28;20284;-84
2022/06/14 09:14:12;;;;;;;12.20;4.72;;;16.70;1.00;;;;;;10198588;29;20395;-83
2022/06/14 09:20:00;;;;;;;4.45;1.08;;;16.50;1.00;;;;;;10185390;29;20466;-81
2022/06/14 09:25:54;;;;;;;4.75;1.00;;;16.70;1.00;;;;;;10174162;29;20301;-83
2022/06/14 09:31:25;;;;;;;4.47;0.88;;;17.30;1.00;;;;;;10201997;29;20208;-85
2022/06/14 09:37:14;;;;;;;25.35;1.70;;;17.60;1.00;;;;;;10186037;29;20597;-83
2022/06/14 09:42:51;;;;;;;2.88;0.93;;;18.00;1.00;;;;;;10148675;29;20216;-85
2022/06/14 09:48:40;;;;;;;8.25;1.35;;;18.20;1.00;;;;;;10184473;29;20263;-83
2022/06/14 09:54:27;;;;;;;6.88;1.45;;;18.90;99.90;;;;;;10217440;29;20280;-84
2022/06/14 10:00:01;;;;;;;7.63;1.50;;;19.40;87.20;;;;;;10226476;28;20207;-83
2022/06/14 10:06:01;;;;;;;3.78;1.00;;;19.50;1.00;;;;;;10285409;28;20254;-84
2022/06/14 10:11:54;;;;;;;3.20;1.10;;;19.20;1.00;;;;;;10264880;28;20302;-83
2022/06/14 10:17:46;;;;;;;4.40;1.75;;;18.50;44.60;;;;;;10241639;28;20410;-83
2022/06/14 10:23:24;;;;;;;4.15;1.52;;;18.20;99.90;;;;;;10274047;28;20210;-82
2022/06/14 10:29:03;;;;;;;6.22;1.02;;;18.80;99.90;;;;;;10266607;28;20537;-84
2022/06/14 10:34:48;;;;;;;5.65;1.83;;;18.50;99.50;;;;;;10276944;28;20199;-84
2022/06/14 10:40:45;;;;;;;5.20;1.20;;;17.90;99.90;;;;;;10263626;28;20206;-83
2022/06/14 10:46:29;;;;;;;3.28;1.30;;;17.40;1.00;;;;;;10102537;29;20270;-82
2022/06/14 10:51:53;;;;;;;5.53;1.30;;;17.00;1.00;;;;;;10104222;29;20206;-85
2022/06/14 10:57:42;;;;;;;2.60;0.90;;;16.80;1.00;;;;;;10102555;29;20248;-81
2022/06/14 11:03:23;;;;;;;6.22;1.30;;;17.40;99.90;;;;;;10083842;29;20262;-84
2022/06/14 11:09:00;;;;;;;3.50;1.00;;;18.10;99.90;;;;;;10115818;29;20686;-84
2022/06/14 11:14:55;;;;;;;5.30;1.40;;;17.90;99.90;;;;;;10102401;29;20229;-83
2022/06/14 11:20:28;;;;;;;10.82;1.55;;;18.00;99.90;;;;;;10149957;29;20278;-85
2022/06/14 11:25:56;;;;;;;4.13;1.40;;;18.40;99.90;;;;;;10296616;28;20218;-83
2022/06/14 11:31:32;;;;;;;4.60;1.30;;;18.60;86.30;;;;;;10275626;28;20521;-86
2022/06/14 11:36:59;;;;;;;6.22;1.13;;;18.50;99.20;;;;;;10273512;28;20508;-85
2022/06/14 11:42:43;;;;;;;3.05;1.17;;;18.20;99.90;;;;;;10260124;28;20223;-84
2022/06/14 11:48:33;;;;;;;6.43;1.50;;;17.80;99.90;;;;;;10257820;28;20246;-84
2022/06/14 11:54:06;;;;;;;9.18;2.30;;;17.70;99.90;;;;;;10273713;28;20236;-84
2022/06/14 12:00:07;;;;;;;5.72;1.70;;;17.40;99.90;;;;;;10245704;28;20280;-84
2022/06/14 12:05:39;;;;;;;5.57;1.10;;;17.30;99.90;;;;;;10179370;29;20247;-82
2022/06/14 12:11:24;;;;;;;3.22;1.05;;;17.60;1.00;;;;;;10218208;29;20249;-85
2022/06/14 12:17:10;;;;;;;8.13;1.48;;;18.20;1.00;;;;;;10156759;29;20251;-84
2022/06/14 12:22:55;;;;;;;3.63;1.23;;;18.00;99.90;;;;;;10135926;29;20287;-84
2022/06/14 12:28:39;;;;;;;3.63;1.50;;;17.80;99.90;;;;;;10172645;29;20543;-85
2022/06/14 12:34:24;;;;;;;6.55;1.27;;;17.80;99.90;;;;;;10181110;29;20210;-82
2022/06/14 12:39:58;;;;;;;8.35;1.52;;;17.60;99.90;;;;;;10252778;28;20206;-83
2022/06/14 12:45:27;;;;;;;4.32;1.08;;;17.50;1.00;;;;;;10257927;28;20236;-82
2022/06/14 12:50:50;;;;;;;7.30;0.93;;;17.30;1.00;;;;;;10205063;29;20215;-83
2022/06/14 12:56:56;;;;;;;8.02;1.17;;;17.20;1.00;;;;;;10269656;28;20247;-84
2022/06/14 13:02:42;;;;;;;3.47;1.13;;;17.10;1.00;;;;;;10257324;28;20204;-83
2022/06/14 13:08:28;;;;;;;4.93;1.10;;;17.30;1.00;;;;;;10264056;28;20241;-83
2022/06/14 13:14:05;;;;;;;5.82;1.50;;;17.70;1.00;;;;;;10248740;28;20237;-84
2022/06/14 13:19:34;;;;;;;5.68;1.65;;;18.50;1.00;;;;;;10259519;28;20227;-85
2022/06/14 13:25:21;;;;;;;3.50;1.52;;;18.70;1.00;;;;;;10259736;28;20212;-83
2022/06/14 13:31:20;;;;;;;6.38;1.27;;;18.50;1.00;;;;;;10276440;28;20280;-83
2022/06/14 13:36:48;;;;;;;3.97;1.38;;;17.80;1.00;;;;;;10271193;28;20198;-84
2022/06/14 13:42:16;;;;;;;13.15;1.52;;;17.70;1.00;;;;;;10268509;28;20221;-83
2022/06/14 13:47:43;;;;;;;3.63;1.38;;;17.40;1.00;;;;;;10245229;28;20248;-86
2022/06/14 13:53:19;;;;;;;4.55;1.40;;;17.40;99.90;;;;;;10254933;28;20235;-83
2022/06/14 13:59:00;;;;;;;9.07;1.98;;;17.60;99.90;;;;;;10251991;28;20201;-84
2022/06/14 14:04:37;;;;;;;4.90;1.60;;;18.20;69.70;;;;;;10269711;28;20212;-83
2022/06/14 14:10:10;;;;;;;7.57;1.88;;;18.00;1.00;;;;;;10239473;28;20246;-83
2022/06/14 14:15:45;;;;;;;7.45;1.27;;;17.60;1.00;;;;;;10260390;28;20213;-86
2022/06/14 14:21:12;;;;;;;31.60;2.13;;;17.50;99.90;;;;;;10269540;28;20210;-82
2022/06/14 14:26:47;;;;;;;5.95;1.60;;;17.80;1.00;;;;;;10261666;28;20397;-84
2022/06/14 14:32:20;;;;;;;7.18;1.73;;;18.00;1.00;;;;;;10254855;28;20205;-83
2022/06/14 14:37:47;;;;;;;8.32;1.25;;;18.00;1.00;;;;;;10255577;28;20210;-86
2022/06/14 14:43:11;;;;;;;15.05;1.90;;;18.10;1.00;;;;;;10250201;28;20568;-81
2022/06/14 14:49:01;;;;;;;4.57;1.40;;;18.00;99.90;;;;;;10254857;28;20240;-82
2022/06/14 14:54:41;;;;;;;2.42;1.30;;;18.00;1.00;;;;;;10251691;28;20531;-83
2022/06/14 15:00:15;;;;;;;9.25;1.15;;;18.10;99.90;;;;;;10269452;28;20213;-88
2022/06/14 15:05:44;;;;;;;3.88;1.48;;;18.30;99.90;;;;;;10265368;28;20527;-81
2022/06/14 15:11:08;;;;;;;5.68;1.90;;;18.00;99.90;;;;;;10282050;28;20207;-82
2022/06/14 15:16:37;;;;;;;4.95;1.30;;;17.90;1.00;;;;;;10280765;28;20197;-83
2022/06/14 15:22:15;;;;;;;3.90;1.17;;;17.80;1.00;;;;;;10279341;28;20281;-83
2022/06/14 15:27:58;;;;;;;3.38;1.50;;;17.60;1.00;;;;;;10284553;28;20304;-84
2022/06/14 15:33:42;;;;;;;4.03;1.25;;;17.60;98.10;;;;;;10292475;28;20200;-84
2022/06/14 15:39:05;;;;;;;6.20;1.45;;;18.10;51.80;;;;;;10251690;28;20494;-85
2022/06/14 15:44:32;;;;;;;3.60;1.85;;;18.10;1.00;;;;;;10239543;28;20206;-83
2022/06/14 15:49:53;;;;;;;6.78;1.65;;;17.90;24.20;;;;;;10264610;28;20231;-81
2022/06/14 15:55:21;;;;;;;4.57;1.50;;;17.90;16.50;;;;;;10277408;28;20253;-81
2022/06/14 16:00:52;;;;;;;6.43;2.10;;;17.80;99.90;;;;;;10277913;28;20335;-82
2022/06/14 16:06:54;;;;;;;8.02;1.48;;;17.80;99.90;;;;;;10263150;28;20230;-82
2022/06/14 16:12:21;;;;;;;10.55;1.85;;;17.70;99.90;;;;;;10143113;29;20216;-82
2022/06/14 16:17:45;;;;;;;4.72;1.77;;;17.40;1.00;;;;;;10156737;29;20260;-81
2022/06/14 16:23:14;;;;;;;6.93;2.38;;;17.30;99.90;;;;;;10143526;29;20283;-83
2022/06/14 16:29:12;;;;;;;4.85;1.45;;;17.20;1.00;;;;;;10156130;29;20227;-82
2022/06/14 16:34:45;;;;;;;3.78;1.73;;;17.20;1.00;;;;;;10140494;29;20208;-84
2022/06/14 16:40:18;;;;;;;7.60;1.67;;;17.10;8.50;;;;;;10140564;29;20438;-82
2022/06/14 16:46:03;;;;;;;5.63;1.80;;;17.10;1.00;;;;;;10242621;28;20284;-82
2022/06/14 16:52:03;;;;;;;5.55;2.08;;;16.90;99.90;;;;;;10263122;29;20279;-81
2022/06/14 16:57:37;;;;;;;4.35;2.20;;;16.80;1.50;;;;;;10256066;28;20240;-81
2022/06/14 17:03:20;;;;;;;7.60;2.17;;;16.80;1.00;;;;;;10275636;28;20222;-81
2022/06/14 17:09:05;;;;;;;5.20;2.50;;;16.80;99.90;;;;;;10274341;28;20232;-82
2022/06/14 17:14:50;;;;;;;3.85;1.63;;;16.90;1.00;;;;;;10261612;28;20488;-86
2022/06/14 17:20:31;;;;;;;5.95;2.20;;;16.60;99.90;;;;;;10261324;28;20208;-84
2022/06/14 17:31:43;;;;;;;7.03;1.92;;;16.50;1.00;;;;;;10234960;29;20260;-81
2022/06/14 17:37:10;;;;;;;2.95;1.27;;;16.40;99.90;;;;;;10235195;29;20213;-80
2022/06/14 17:42:36;;;;;;;6.72;2.17;;;16.30;1.00;;;;;;10285316;28;20201;-80
2022/06/14 17:48:35;;;;;;;4.43;1.80;;;16.10;99.90;;;;;;10279321;28;20292;-82
2022/06/14 17:54:15;;;;;;;4.68;2.05;;;16.10;1.00;;;;;;10259785;28;20465;-81
2022/06/14 17:59:57;;;;;;;6.45;1.83;;;16.00;97.80;;;;;;10260236;28;20256;-80
2022/06/14 18:05:37;;;;;;;6.20;2.10;;;16.00;99.90;;;;;;10259674;28;20276;-81
2022/06/14 18:11:07;;;;;;;8.30;2.05;;;15.90;99.90;;;;;;10271929;28;20512;-80
2022/06/14 18:16:34;;;;;;;3.88;1.40;;;15.70;99.90;;;;;;10287281;28;20207;-81
2022/06/14 18:22:01;;;;;;;11.73;2.00;;;15.60;99.90;;;;;;10259709;28;20196;-79
2022/06/14 18:27:25;;;;;;;5.80;2.50;;;15.50;1.00;;;;;;10273038;28;20236;-81
2022/06/14 18:32:59;;;;;;;4.82;1.63;;;15.50;1.00;;;;;;10276830;28;20220;-80
2022/06/14 18:38:36;;;;;;;4.63;1.80;;;15.40;1.00;;;;;;10283591;28;20225;-81
2022/06/14 18:44:15;;;;;;;3.35;1.33;;;15.40;1.00;;;;;;10267267;28;20240;-80
2022/06/14 18:49:55;;;;;;;6.10;2.05;;;15.30;1.00;;;;;;10280653;28;20232;-81
2022/06/14 18:55:18;;;;;;;8.70;2.05;;;15.30;1.00;;;;;;10266340;28;20232;-80
2022/06/14 19:00:42;;;;;;;7.13;1.77;;;15.10;1.00;;;;;;10280192;28;20214;-81
2022/06/14 19:06:13;;;;;;;7.93;2.30;;;15.10;1.00;;;;;;10265834;28;20207;-81
2022/06/14 19:12:03;;;;;;;4.82;1.73;;;15.00;1.00;;;;;;10280315;28;20239;-80
2022/06/14 19:17:43;;;;;;;5.38;1.65;;;14.90;1.00;;;;;;10275889;28;20280;-80
2022/06/14 19:23:31;;;;;;;5.75;1.75;;;14.80;1.00;;;;;;10265721;28;20205;-81
2022/06/14 19:29:10;;;;;;;9.68;2.42;;;14.70;1.00;;;;;;10309214;28;20297;-80
2022/06/14 19:34:39;;;;;;;3.40;1.42;;;14.70;1.00;;;;;;10284737;28;20268;-80
2022/06/14 19:40:03;;;;;;;5.75;1.90;;;14.60;1.00;;;;;;10265112;29;20231;-81
2022/06/14 19:45:27;;;;;;;6.60;1.63;;;14.60;1.00;;;;;;10263825;28;20252;-80
2022/06/14 19:50:51;;;;;;;2.13;1.20;;;14.60;1.00;;;;;;10264530;28;20281;-81
2022/06/14 19:56:14;;;;;;;7.18;2.20;;;14.60;1.00;;;;;;10278137;28;20305;-80
2022/06/14 20:01:47;;;;;;;4.82;1.67;;;14.40;1.00;;;;;;10277547;28;20227;-80
2022/06/14 20:07:12;;;;;;;7.75;2.35;;;14.40;1.00;;;;;;10266795;28;20233;-81
2022/06/14 20:12:34;;;;;;;8.80;2.40;;;14.30;1.00;;;;;;10277094;28;20429;-81
2022/06/14 20:18:01;;;;;;;3.45;1.45;;;14.30;1.00;;;;;;10277246;28;20206;-80
2022/06/14 20:23:24;;;;;;;5.75;1.48;;;14.20;1.00;;;;;;10263232;28;20199;-80
2022/06/14 20:28:47;;;;;;;5.22;2.22;;;14.20;1.00;;;;;;10309480;28;20224;-80
2022/06/14 20:34:09;;;;;;;6.95;2.30;;;14.10;1.00;;;;;;10332831;28;20199;-81
2022/06/14 20:39:30;;;;;;;5.25;1.60;;;14.10;1.00;;;;;;10305710;28;21824;-81
2022/06/14 20:45:07;;;;;;;5.13;1.58;;;14.00;8.70;;;;;;10223773;29;20204;-81
2022/06/14 20:50:35;;;;;;;5.88;2.03;;;13.90;10.50;;;;;;10238726;29;20661;-81
2022/06/14 20:56:07;;;;;;;8.60;2.65;;;13.80;24.90;;;;;;10222017;29;20336;-84
2022/06/14 21:01:29;;;;;;;5.00;1.75;;;13.70;44.60;;;;;;10248720;28;20260;-80
2022/06/14 21:06:50;;;;;;;5.75;2.00;;;13.70;48.00;;;;;;10275825;28;20224;-80
2022/06/14 21:12:17;;;;;;;7.88;2.05;;;13.70;54.60;;;;;;10262043;28;20209;-81
2022/06/14 21:17:40;;;;;;;4.50;1.52;;;13.70;53.70;;;;;;10261281;28;20511;-82
2022/06/14 21:23:01;;;;;;;6.38;1.80;;;13.70;62.50;;;;;;10277132;28;20193;-81
2022/06/14 21:28:23;;;;;;;13.20;2.40;;;13.70;68.20;;;;;;10287357;28;20245;-80
2022/06/14 21:34:00;;;;;;;11.45;2.03;;;13.70;74.70;;;;;;10314666;28;20499;-80
2022/06/14 21:39:44;;;;;;;5.07;1.75;;;13.60;91.40;;;;;;10312047;28;20389;-80
2022/06/14 21:45:09;;;;;;;7.03;1.73;;;13.60;99.90;;;;;;10260546;28;20205;-81
2022/06/14 21:50:32;;;;;;;3.38;1.80;;;13.50;99.90;;;;;;10247097;28;20428;-80
2022/06/14 21:56:17;;;;;;;7.78;1.65;;;13.50;99.90;;;;;;10259956;28;20262;-81
2022/06/14 22:01:59;;;;;;;6.43;1.80;;;13.50;99.90;;;;;;10260299;28;20192;-81
2022/06/14 22:07:21;;;;;;;4.45;1.73;;;13.40;99.90;;;;;;10280619;28;20263;-82
2022/06/14 22:12:43;;;;;;;6.20;2.07;;;13.40;99.90;;;;;;10286999;28;20207;-83
2022/06/14 22:18:18;;;;;;;7.10;1.83;;;13.30;99.90;;;;;;10268406;28;20211;-81
2022/06/14 22:29:25;;;;;;;7.00;1.90;;;13.20;99.90;;;;;;10301750;28;20236;-81
2022/06/14 22:34:53;;;;;;;7.90;2.10;;;13.20;99.90;;;;;;10307229;28;20199;-81
2022/06/14 22:40:15;;;;;;;15.70;2.88;;;13.20;99.90;;;;;;10294643;28;20231;-81
2022/06/14 22:45:36;;;;;;;9.23;2.45;;;13.20;99.90;;;;;;10267277;28;20207;-80
2022/06/14 22:50:57;;;;;;;6.75;1.83;;;13.10;99.90;;;;;;10267225;29;20238;-81
2022/06/14 22:56:18;;;;;;;4.57;2.10;;;13.10;99.90;;;;;;10279882;28;20230;-81
2022/06/14 23:12:20;;;;;;;4.00;1.93;;;13.00;99.90;;;;;;10279868;28;20213;-80
2022/06/14 23:17:41;;;;;;;7.18;2.35;;;13.00;99.90;;;;;;10279196;28;20206;-80
2022/06/14 23:23:03;;;;;;;8.88;2.53;;;13.00;99.90;;;;;;10252127;28;20221;-83
2022/06/14 23:28:24;;;;;;;6.57;2.00;;;13.00;99.90;;;;;;10292852;28;20231;-80
2022/06/14 23:33:45;;;;;;;5.45;2.15;;;12.90;99.90;;;;;;10278989;28;20265;-80
2022/06/14 23:39:08;;;;;;;3.70;1.85;;;12.90;99.90;;;;;;10264500;28;20195;-80
2022/06/14 23:44:30;;;;;;;7.43;2.07;;;12.90;99.90;;;;;;10265130;28;20207;-81
2022/06/14 23:49:51;;;;;;;6.70;1.87;;;12.80;99.90;;;;;;10278249;28;20393;-81
2022/06/14 23:55:12;;;;;;;6.63;2.10;;;12.90;99.90;;;;;;10264522;28;20248;-80
